Chenergy Consulting

Roman Reign

 

Blogs and Awards (click icon)

Home
Up
About Us
Austin Dog Friendly
The Posse - Our Dogs
Videos
Working Events and Info
Handcrafted Equipment
Photo Gallery I
Photo Gallery II
Articles and Links
Surviving Parvovirus
Guide to Researching Dog Show Judges
Dangers of Fake Service Dogs
How to make a bloat kit
Transport a dog in cabin

Texas Greater Swiss Mountain Dogs Facebook

 

Keep Austin Dog Friendly is an educational and informational not for profit service. Your contribution offsets the costs of hosting, smart phone app development, promotional materials, and the costs of sponsoring events. Thank you so much in Keeping Austin Dog Friendly. Donations are not tax deductible.

Download the Keep Austin Dog Friendly iPhone/Ipad App!

Follow us on Twitter!

(click on icon to follow)

 

 

 

 

 

 

 

 

Email: Jennie at Roman Reign dot com.

 

Google Voice:

512-981-7627

 

 

 

 

This was our route.  Please be aware that I had the first generation IPhone.  It did not have full GPS capabilities (thus lack of altitude information), and it tracked off of cell-towers.  Thus, there are some parts of the country where the tracks were less frequent, and it also showed us in a lake or on railroad tracks. 

GPS tracking powered by InstaMapper.com

 

Time Latitude Longitude Altitude (ft) Speed (mph) Heading
11/22/2008 6:10 N 46.16090 W 119.05350 0 0 0
11/22/2008 6:30 N 46.21332 W 119.12209 0 0 0
11/22/2008 6:34 N 46.20322 W 119.12741 0 0 0
11/22/2008 6:49 N 46.18745 W 119.17302 0 0 0
11/22/2008 6:50 N 46.17625 W 119.18034 0 0 0
11/22/2008 6:51 N 46.18600 W 119.19690 0 0 0
11/22/2008 6:55 N 46.11771 W 119.20662 0 0 0
11/22/2008 6:56 N 46.11771 W 119.20662 0 0 0
11/22/2008 7:10 N 45.92685 W 119.27534 0 0 0
11/22/2008 7:14 N 45.93372 W 119.09120 0 0 0
11/22/2008 7:15 N 45.93372 W 119.09120 0 0 0
11/22/2008 7:21 N 45.82516 W 119.31099 0 0 0
11/22/2008 7:26 N 45.79469 W 119.35077 0 0 0
11/22/2008 8:05 N 45.78162 W 119.27017 0 0 0
11/22/2008 8:13 N 45.76003 W 119.19302 0 0 0
11/22/2008 8:22 N 45.78162 W 119.27017 0 0 0
11/22/2008 8:23 N 45.78162 W 119.27017 0 0 0
11/22/2008 8:34 N 45.85274 W 119.34135 0 0 0
11/22/2008 8:40 N 45.91893 W 119.32091 0 0 0
11/22/2008 8:44 N 45.93584 W 119.33339 0 0 0
11/22/2008 8:50 N 46.00743 W 119.25797 0 0 0
11/22/2008 9:01 N 46.00670 W 119.26576 0 0 0
11/22/2008 9:10 N 46.11771 W 119.20662 0 0 0
11/22/2008 9:13 N 46.16646 W 119.19412 0 0 0
11/22/2008 9:15 N 46.18492 W 119.17570 0 0 0
11/22/2008 9:21 N 46.20706 W 119.15587 0 0 0
11/22/2008 9:33 N 46.20950 W 119.15840 0 0 0
11/22/2008 9:41 N 46.24658 W 119.12309 0 0 0
11/22/2008 9:51 N 46.27878 W 119.09441 0 0 0
11/22/2008 9:52 N 46.37936 W 119.07031 0 0 0
11/22/2008 9:55 N 46.37936 W 119.07031 0 0 0
11/22/2008 9:57 N 46.37936 W 119.07031 0 0 0
11/22/2008 10:12 N 46.53995 W 119.00548 0 0 0
11/22/2008 10:20 N 46.60037 W 118.95406 0 0 0
11/22/2008 10:20 N 46.60037 W 118.95406 0 0 0
11/22/2008 10:22 N 46.62900 W 118.89726 0 0 0
11/22/2008 10:27 N 46.65846 W 118.84445 0 0 0
11/22/2008 10:28 N 46.62900 W 118.89726 0 0 0
11/22/2008 10:31 N 46.60037 W 118.95406 0 0 0
11/22/2008 10:34 N 46.60037 W 118.95406 0 0 0
11/22/2008 10:36 N 46.79224 W 118.71834 0 0 0
11/22/2008 10:37 N 46.79224 W 118.71834 0 0 0
11/22/2008 10:45 N 46.80223 W 118.72797 0 0 0
11/22/2008 10:52 N 46.84776 W 118.64908 0 0 0
11/22/2008 10:54 N 46.80223 W 118.72797 0 0 0
11/22/2008 10:55 N 46.90150 W 118.61015 0 0 0
11/22/2008 10:57 N 46.84149 W 118.65491 0 0 0
11/22/2008 10:59 N 46.90150 W 118.61015 0 0 0
11/22/2008 11:08 N 46.90150 W 118.61015 0 0 0
11/22/2008 11:08 N 46.90150 W 118.61015 0 0 0
11/22/2008 11:11 N 46.97528 W 118.56013 0 0 0
11/22/2008 11:14 N 47.04724 W 118.44220 0 0 0
11/22/2008 11:23 N 47.03001 W 118.47185 0 0 0
11/22/2008 11:28 N 47.10509 W 118.42336 0 0 0
11/22/2008 11:34 N 47.10509 W 118.42336 0 0 0
11/22/2008 11:35 N 47.15181 W 118.31627 0 0 0
11/22/2008 11:37 N 47.19308 W 118.25661 0 0 0
11/22/2008 11:42 N 47.10509 W 118.42336 0 0 0
11/22/2008 11:44 N 47.15181 W 118.31627 0 0 0
11/22/2008 11:51 N 47.22893 W 118.16756 0 0 0
11/22/2008 11:53 N 47.22893 W 118.16756 0 0 0
11/22/2008 11:54 N 47.24622 W 118.11584 0 0 0
11/22/2008 11:56 N 47.24622 W 118.11584 0 0 0
11/22/2008 11:57 N 47.24622 W 118.11584 0 0 0
11/22/2008 11:59 N 47.28857 W 118.03577 0 0 0
11/22/2008 13:30 N 47.66852 W 117.13318 0 0 0
11/22/2008 14:12 N 47.62640 W 116.64305 0 0 0
11/22/2008 14:34 N 47.55681 W 116.37337 0 0 0
11/22/2008 14:37 N 47.54088 W 116.14227 0 0 0
11/22/2008 14:44 N 47.54088 W 116.14227 0 0 0
11/22/2008 14:58 N 47.53008 W 116.08511 0 0 0
11/22/2008 15:16 N 47.47528 W 115.92043 0 0 0
11/22/2008 15:30 N 47.47528 W 115.92043 0 0 0
11/22/2008 16:12 N 47.47528 W 115.92043 0 0 0
11/22/2008 16:31 N 47.45746 W 115.70775 0 0 0
11/22/2008 19:35 N 47.29041 W 115.11589 0 0 0
11/22/2008 19:45 N 47.22012 W 114.96956 0 0 0
11/22/2008 20:14 N 47.05679 W 114.71024 0 0 0
11/22/2008 20:22 N 47.05679 W 114.71024 0 0 0
11/22/2008 20:49 N 46.99561 W 114.20193 0 0 0
11/22/2008 21:13 N 46.89723 W 114.03513 0 0 0
11/22/2008 21:23 N 46.87131 W 113.99007 0 0 0
11/22/2008 21:32 N 46.87131 W 113.99007 0 0 0
11/22/2008 20:41 N 46.87046 W 113.98661 0 0 0
11/22/2008 20:41 N 46.87375 W 113.99176 0 0 0
11/22/2008 20:44 N 46.87375 W 113.99176 0 0 0
11/22/2008 21:47 N 46.85892 W 113.86279 0 0 0
11/22/2008 20:48 N 46.86748 W 113.88559 0 0 0
11/22/2008 21:55 N 46.85892 W 113.86279 0 0 0
11/22/2008 21:56 N 46.85892 W 113.86279 0 0 0
11/22/2008 23:39 N 46.38914 W 112.75319 0 0 0
11/23/2008 0:26 N 46.16867 W 112.78879 0 0 0
11/23/2008 0:33 N 46.16867 W 112.78879 0 0 0
11/23/2008 2:55 N 45.66356 W 110.97105 0 0 0
11/23/2008 4:06 N 45.65927 W 110.82108 0 0 0
11/23/2008 4:11 N 45.65927 W 110.82108 0 0 0
11/23/2008 4:17 N 45.65927 W 110.82108 0 0 0
11/23/2008 4:18 N 45.65483 W 110.57422 0 0 0
11/23/2008 4:26 N 45.65927 W 110.82108 0 0 0
11/23/2008 4:27 N 45.65034 W 110.58083 0 0 0
11/23/2008 4:40 N 45.71738 W 110.29883 0 0 0
11/23/2008 3:48 N 45.70424 W 110.35060 0 0 0
11/23/2008 4:52 N 45.71738 W 110.29883 0 0 0
11/23/2008 5:00 N 45.82227 W 109.93587 0 0 0
11/23/2008 5:01 N 45.71738 W 110.29883 0 0 0
11/23/2008 5:07 N 45.82227 W 109.93587 0 0 0
11/23/2008 5:20 N 45.75105 W 109.74356 0 0 0
11/23/2008 5:22 N 45.72987 W 109.67711 0 0 0
11/23/2008 5:24 N 45.77791 W 109.80178 0 0 0
11/23/2008 5:27 N 45.72987 W 109.67711 0 0 0
11/23/2008 5:29 N 45.72987 W 109.67711 0 0 0
11/23/2008 5:31 N 45.72987 W 109.67711 0 0 0
11/23/2008 5:32 N 45.72987 W 109.67711 0 0 0
11/23/2008 5:33 N 45.75105 W 109.74356 0 0 0
11/23/2008 5:35 N 45.72987 W 109.67711 0 0 0
11/23/2008 5:36 N 45.72987 W 109.67711 0 0 0
11/23/2008 5:38 N 45.75105 W 109.74356 0 0 0
11/23/2008 5:40 N 45.72987 W 109.67711 0 0 0
11/23/2008 5:41 N 45.75105 W 109.74356 0 0 0
11/23/2008 5:43 N 45.72987 W 109.67711 0 0 0
11/23/2008 4:46 N 45.69856 W 109.49840 0 0 0
11/23/2008 4:49 N 45.68987 W 109.41725 0 0 0
11/23/2008 4:56 N 45.67549 W 109.34262 0 0 0
11/23/2008 4:58 N 45.67549 W 109.34262 0 0 0
11/23/2008 6:05 N 45.66708 W 109.32538 0 0 0
11/23/2008 6:08 N 45.64533 W 109.24473 0 0 0
11/23/2008 6:13 N 45.64996 W 109.27887 0 0 0
11/23/2008 6:16 N 45.64996 W 109.27887 0 0 0
11/23/2008 5:21 N 45.59831 W 109.09593 0 0 0
11/23/2008 5:30 N 45.59831 W 109.09593 0 0 0
11/23/2008 5:43 N 45.61172 W 109.01166 0 0 0
11/23/2008 5:49 N 45.63945 W 108.89384 0 0 0
11/23/2008 5:59 N 45.66104 W 108.79655 0 0 0
11/23/2008 7:10 N 45.63829 W 108.75259 0 0 0
11/23/2008 7:15 N 45.46045 W 108.87079 0 0 0
11/23/2008 7:17 N 45.54520 W 108.84576 0 0 0
11/23/2008 7:19 N 45.46045 W 108.87079 0 0 0
11/23/2008 6:24 N 45.48164 W 108.86717 0 0 0
11/23/2008 6:26 N 45.46648 W 108.86300 0 0 0
11/23/2008 6:29 N 45.63829 W 108.75259 0 0 0
11/23/2008 7:30 N 45.46045 W 108.87079 0 0 0
11/23/2008 7:44 N 45.27405 W 108.91212 0 0 0
11/23/2008 7:46 N 45.29527 W 108.91412 0 0 0
11/23/2008 7:59 N 45.27380 W 108.91321 0 0 0
11/23/2008 8:00 N 45.27380 W 108.91321 0 0 0
11/23/2008 7:42 N 44.83876 W 108.38953 0 0 0
11/23/2008 7:50 N 44.83876 W 108.38953 0 0 0
11/23/2008 7:52 N 44.83876 W 108.38953 0 0 0
11/23/2008 8:28 N 45.27405 W 108.91212 0 0 0
11/23/2008 8:28 N 45.27380 W 108.91321 0 0 0
11/23/2008 8:42 N 45.27405 W 108.91212 0 0 0
11/23/2008 11:35 N 45.75499 W 108.53751 0 0 0
11/23/2008 11:42 N 45.75499 W 108.53751 0 0 0
11/23/2008 12:08 N 45.79854 W 108.46481 0 0 0
11/23/2008 11:29 N 45.92104 W 108.19933 0 0 0
11/23/2008 12:35 N 45.97609 W 108.02022 0 0 0
11/23/2008 12:39 N 45.97609 W 108.02022 0 0 0
11/23/2008 12:44 N 45.97609 W 108.02022 0 0 0
11/23/2008 12:49 N 45.97589 W 108.01819 0 0 0
11/23/2008 12:54 N 45.97589 W 108.01819 0 0 0
11/23/2008 12:04 N 46.02510 W 107.84288 0 0 0
11/23/2008 13:25 N 46.16562 W 107.35263 0 0 0
11/23/2008 15:22 N 46.37903 W 105.85875 0 0 0
11/23/2008 15:24 N 46.28769 W 106.16803 0 0 0
11/23/2008 15:26 N 46.28769 W 106.16803 0 0 0
11/23/2008 15:28 N 46.42534 W 105.79033 0 0 0
11/23/2008 15:26 N 46.28769 W 106.16803 0 0 0
11/23/2008 15:28 N 46.42534 W 105.79033 0 0 0
11/23/2008 15:31 N 46.42534 W 105.79033 0 0 0
11/23/2008 15:33 N 46.28769 W 106.16803 0 0 0
11/23/2008 15:36 N 46.37733 W 105.86263 0 0 0
11/23/2008 16:24 N 46.76785 W 105.30457 0 0 0
11/23/2008 16:27 N 46.76785 W 105.30457 0 0 0
11/23/2008 16:32 N 46.76671 W 105.34648 0 0 0
11/23/2008 16:08 N 47.06042 W 104.43973 0 0 0
11/23/2008 16:55 N 47.11911 W 104.72128 0 0 0
11/23/2008 17:02 N 47.11911 W 104.72128 0 0 0
11/23/2008 17:04 N 47.06042 W 104.43973 0 0 0
11/23/2008 17:36 N 46.98755 W 104.18013 0 0 0
11/23/2008 17:49 N 46.93542 W 103.99855 0 0 0
11/23/2008 18:29 N 46.92729 W 103.53015 0 0 0
11/23/2008 20:40 N 46.88556 W 102.71806 0 0 0
11/23/2008 21:28 N 46.86302 W 102.09213 0 0 0
11/23/2008 21:59 N 46.86136 W 101.49916 0 0 0
11/23/2008 22:27 N 46.86189 W 101.24077 0 0 0
11/23/2008 23:31 N 46.83603 W 100.36423 0 0 0
11/24/2008 4:12 N 46.85109 W 96.73065 0 0 0
11/24/2008 4:15 N 46.85109 W 96.73065 0 0 0
11/24/2008 4:56 N 46.56889 W 96.82872 0 0 0
11/24/2008 4:58 N 46.56889 W 96.82872 0 0 0
11/24/2008 6:08 N 46.13510 W 96.83719 0 0 0
11/24/2008 6:26 N 45.85193 W 96.87579 0 0 0
11/24/2008 6:32 N 45.85193 W 96.87579 0 0 0
11/24/2008 7:34 N 45.30688 W 97.08839 0 0 0
11/24/2008 7:43 N 45.09329 W 97.05595 0 0 0
11/24/2008 7:46 N 45.30133 W 97.04178 0 0 0
11/24/2008 7:47 N 45.09842 W 97.05603 0 0 0
11/24/2008 7:50 N 45.09842 W 97.05603 0 0 0
11/24/2008 7:51 N 45.09842 W 97.05603 0 0 0
11/24/2008 7:53 N 45.09842 W 97.05603 0 0 0
11/24/2008 8:00 N 45.01251 W 97.05478 0 0 0
11/24/2008 8:02 N 45.09842 W 97.05603 0 0 0
11/24/2008 8:03 N 44.87831 W 97.06834 0 0 0
11/24/2008 8:04 N 45.09842 W 97.05603 0 0 0
11/24/2008 8:07 N 44.97406 W 97.05667 0 0 0
11/24/2008 8:56 N 44.67204 W 96.82477 0 0 0
11/24/2008 9:38 N 44.37889 W 96.75755 0 0 0
11/24/2008 9:43 N 44.01720 W 96.76073 0 0 0
11/24/2008 9:43 N 44.01720 W 96.76073 0 0 0
11/24/2008 9:54 N 44.00125 W 96.76483 0 0 0
11/24/2008 10:16 N 44.00125 W 96.76483 0 0 0
11/24/2008 10:18 N 43.82390 W 96.77579 0 0 0
11/24/2008 10:21 N 43.76045 W 96.77858 0 0 0
11/24/2008 10:24 N 43.82390 W 96.77579 0 0 0
11/24/2008 10:25 N 43.76045 W 96.77858 0 0 0
11/24/2008 10:27 N 43.82390 W 96.77579 0 0 0
11/24/2008 10:33 N 43.61356 W 96.81291 0 0 0
11/24/2008 10:34 N 43.76045 W 96.77858 0 0 0
11/24/2008 10:38 N 43.76045 W 96.77858 0 0 0
11/24/2008 10:40 N 43.60880 W 96.77012 0 0 0
11/24/2008 10:42 N 43.58772 W 96.78276 0 0 0
11/24/2008 10:43 N 43.59459 W 96.77074 0 0 0
11/24/2008 10:46 N 43.57540 W 96.77279 0 0 0
11/24/2008 10:47 N 43.54903 W 96.75848 0 0 0
11/24/2008 10:50 N 43.57359 W 96.78095 0 0 0
11/24/2008 11:01 N 43.57333 W 96.78035 0 0 0
11/24/2008 11:16 N 43.57587 W 96.78098 0 93 0
11/24/2008 11:41 N 43.33191 W 96.79434 0 0 0
11/24/2008 13:20 N 42.81624 W 96.89403 0 0 0
11/24/2008 14:55 N 42.48523 W 96.05426 0 0 0
11/24/2008 16:20 N 42.43095 W 95.05147 0 0 0
11/24/2008 17:09 N 42.39844 W 94.47301 0 0 0
11/24/2008 17:34 N 42.44736 W 94.02306 0 0 0
11/24/2008 17:48 N 42.45009 W 93.83612 0 0 0
11/24/2008 19:07 N 42.42606 W 93.56165 0 0 0
11/24/2008 22:24 N 42.45979 W 91.05113 0 0 0
11/24/2008 23:14 N 42.50056 W 90.59419 0 0 0
11/24/2008 23:38 N 42.39824 W 90.36566 0 0 0
11/25/2008 2:26 N 42.29111 W 88.86829 0 0 0
11/25/2008 2:41 N 42.36900 W 88.79843 0 0 0
11/25/2008 3:50 N 42.43260 W 88.01721 0 0 0
11/25/2008 3:56 N 42.43152 W 87.95163 0 0 0
11/25/2008 5:56 N 42.38768 W 87.95229 0 0 0
11/25/2008 5:57 N 42.38612 W 87.92719 0 0 0
11/25/2008 5:58 N 42.37428 W 87.94458 0 0 0
11/25/2008 6:49 N 41.86722 W 87.91896 0 0 0
11/25/2008 6:49 N 41.85768 W 87.92122 0 0 0
11/25/2008 9:31 N 41.80376 W 86.69983 0 0 0
11/25/2008 10:37 N 41.74272 W 85.96391 0 0 0
11/25/2008 12:24 N 41.60513 W 84.50005 0 0 0
11/25/2008 12:37 N 41.58951 W 84.28404 0 0 0
11/25/2008 13:00 N 41.58963 W 84.12683 0 0 0
11/25/2008 13:52 N 41.58963 W 84.12683 0 0 0
11/25/2008 14:36 N 41.56409 W 83.57414 0 0 0
11/25/2008 14:58 N 41.45760 W 83.28918 0 0 0
11/25/2008 15:17 N 41.38629 W 82.99467 0 0 0
11/25/2008 15:35 N 41.36816 W 82.96497 0 0 0
11/25/2008 15:58 N 41.32130 W 82.60225 0 0 0
11/25/2008 16:49 N 41.46704 W 81.85548 0 0 0
11/25/2008 17:45 N 41.64748 W 81.34088 0 0 0
11/25/2008 17:47 N 41.66489 W 81.26410 0 0 0
11/25/2008 19:05 N 42.01668 W 80.20956 0 0 0
11/25/2008 19:09 N 42.03786 W 80.10793 0 0 0
11/25/2008 19:12 N 42.04840 W 80.08325 0 0 0
11/25/2008 19:14 N 42.06696 W 80.04495 0 0 0
11/25/2008 19:17 N 42.09747 W 79.99838 0 0 0
11/25/2008 19:22 N 42.11125 W 79.97452 0 0 0
11/25/2008 19:23 N 42.13512 W 79.93178 0 0 0
11/25/2008 20:06 N 42.35501 W 79.54073 0 0 0
11/25/2008 20:08 N 42.38564 W 79.48183 0 0 0
11/25/2008 20:13 N 42.42267 W 79.40712 0 0 0
11/25/2008 20:26 N 42.46954 W 79.29662 0 0 0
11/25/2008 21:14 N 42.83963 W 78.78764 0 0 0
11/25/2008 22:06 N 43.02808 W 78.17273 0 0 0
11/25/2008 22:20 N 43.03145 W 78.00156 0 0 0
11/25/2008 22:23 N 43.02985 W 77.89423 0 0 0
11/25/2008 23:17 N 43.04718 W 77.64752 0 0 0
11/26/2008 3:24 N 42.91386 W 74.44229 0 0 0
11/26/2008 3:48 N 42.91386 W 74.44229 0 0 0
11/26/2008 8:46 N 42.91386 W 74.44229 0 0 0
11/26/2008 10:50 N 42.93695 W 74.31415 0 0 0
11/26/2008 10:52 N 42.94875 W 74.37604 0 0 0
11/26/2008 11:45 N 42.94875 W 74.37604 0 0 0
11/26/2008 12:07 N 42.93695 W 74.31415 0 0 0
11/26/2008 14:06 N 42.91386 W 74.44229 0 0 0
11/26/2008 14:11 N 42.91386 W 74.44229 0 0 0
11/26/2008 15:22 N 42.73712 W 73.68996 0 0 0
11/26/2008 15:46 N 42.75690 W 73.61142 0 0 0
11/26/2008 15:48 N 42.78656 W 73.57474 0 0 0
11/26/2008 15:57 N 42.80086 W 73.51520 0 0 0
11/26/2008 16:02 N 42.84077 W 73.47182 0 0 0
11/26/2008 16:12 N 42.85812 W 73.33984 0 0 0
11/26/2008 16:14 N 42.85812 W 73.33984 0 0 0
11/26/2008 16:17 N 42.90146 W 73.23929 0 0 0
11/26/2008 16:20 N 42.87413 W 73.27062 0 0 0
11/26/2008 16:21 N 42.90146 W 73.23929 0 0 0
11/26/2008 16:30 N 42.88557 W 73.18257 0 0 0
11/26/2008 16:32 N 42.87974 W 73.18092 0 0 0
11/26/2008 17:10 N 42.86743 W 72.86720 0 0 0
11/26/2008 17:16 N 42.86743 W 72.86720 0 0 0
11/26/2008 18:00 N 42.90840 W 72.45171 0 0 0
11/26/2008 18:12 N 42.92868 W 72.29865 0 0 0
11/26/2008 18:32 N 42.99977 W 72.17050 0 0 0
11/26/2008 19:40 N 43.23369 W 71.47733 0 0 0
11/26/2008 20:01 N 43.21593 W 71.21004 0 0 0
11/26/2008 20:49 N 43.26381 W 70.90109 0 0 0
11/26/2008 21:06 N 43.20279 W 70.87286 0 0 0
11/26/2008 21:11 N 43.24377 W 70.78563 0 0 0
11/26/2008 21:33 N 43.11195 W 70.73689 0 0 0
11/26/2008 21:36 N 43.09697 W 70.75578 0 0 0
11/26/2008 21:37 N 43.11195 W 70.73689 0 0 0
11/26/2008 21:39 N 43.11195 W 70.73689 0 0 0
11/26/2008 21:44 N 43.09697 W 70.75578 0 0 0
11/26/2008 22:00 N 43.11195 W 70.73689 0 0 0
11/26/2008 22:15 N 43.04610 W 70.80893 0 0 0
11/26/2008 22:33 N 42.86176 W 70.88930 0 0 0
11/26/2008 22:35 N 42.84267 W 70.90897 0 0 0
11/26/2008 22:37 N 42.81026 W 70.91321 0 0 0
11/27/2008 0:17 N 42.22380 W 71.03153 0 0 0
11/27/2008 0:53 N 42.20711 W 71.05911 0 0 0
11/27/2008 2:24 N 41.64146 W 71.62329 0 0 0
11/27/2008 2:27 N 41.61412 W 71.65053 0 0 0
11/27/2008 3:06 N 41.43274 W 71.82033 0 0 0
11/27/2008 3:08 N 41.42333 W 71.83722 0 0 0
11/27/2008 3:25 N 41.35829 W 72.03294 0 0 0
11/27/2008 3:28 N 41.36385 W 72.08786 0 0 0
11/27/2008 4:30 N 41.29156 W 72.64651 0 0 0
11/27/2008 5:56 N 41.01286 W 73.64360 0 0 0
11/27/2008 6:03 N 40.97417 W 73.71751 0 0 0
11/27/2008 6:04 N 40.95627 W 73.74269 0 0 0
11/27/2008 6:06 N 40.93976 W 73.75359 0 0 0
11/27/2008 6:07 N 40.92910 W 73.76735 0 0 0
11/27/2008 6:09 N 40.91449 W 73.78288 0 0 0
11/27/2008 6:11 N 40.89249 W 73.80009 0 0 0
11/27/2008 6:12 N 40.88530 W 73.81306 0 0 0
11/27/2008 6:13 N 40.88335 W 73.82639 0 0 0
11/27/2008 6:14 N 40.87490 W 73.83504 0 0 0
11/27/2008 6:16 N 40.86348 W 73.82819 0 0 0
11/27/2008 6:17 N 40.84942 W 73.82951 0 0 0
11/27/2008 6:18 N 40.83739 W 73.82672 0 0 0
11/27/2008 6:20 N 40.83043 W 73.84431 0 0 0
11/27/2008 6:21 N 40.83112 W 73.85373 0 0 0
11/27/2008 6:23 N 40.83919 W 73.88187 0 0 0
11/27/2008 6:24 N 40.84355 W 73.89590 0 0 0
11/27/2008 6:25 N 40.84474 W 73.90695 0 0 0
11/27/2008 6:26 N 40.84666 W 73.92796 0 0 0
11/27/2008 6:28 N 40.84930 W 73.94034 0 0 0
11/27/2008 6:30 N 40.85445 W 73.96606 0 0 0
11/27/2008 6:32 N 40.86409 W 73.97510 0 0 0
11/27/2008 6:33 N 40.87369 W 73.99570 0 0 0
11/27/2008 6:46 N 40.76196 W 74.11243 0 0 0
11/27/2008 6:48 N 40.73390 W 74.12500 0 0 0
11/27/2008 6:49 N 40.72351 W 74.13522 0 0 0
11/27/2008 6:50 N 40.71210 W 74.14326 0 0 0
11/27/2008 6:53 N 40.68849 W 74.16420 0 0 0
11/27/2008 6:54 N 40.67528 W 74.17294 0 0 0
11/27/2008 6:55 N 40.66946 W 74.18076 0 0 0
11/27/2008 6:58 N 40.64447 W 74.20471 0 0 0
11/27/2008 7:00 N 40.62276 W 74.21722 0 0 0
11/27/2008 7:41 N 40.22432 W 74.55602 0 0 0
11/27/2008 7:47 N 40.16698 W 74.64697 0 0 0
11/27/2008 7:50 N 40.14780 W 74.67085 0 0 0
11/27/2008 8:14 N 39.94679 W 74.93398 0 0 0
11/27/2008 8:16 N 39.92198 W 74.96741 0 0 0
11/27/2008 8:17 N 39.89105 W 74.99719 0 0 0
11/27/2008 8:42 N 39.89105 W 74.99719 0 0 0
11/27/2008 9:08 N 39.70528 W 75.37128 0 0 0
11/27/2008 9:09 N 39.69394 W 75.40698 0 0 0
11/27/2008 9:12 N 39.68599 W 75.43224 0 0 0
11/27/2008 9:14 N 39.68199 W 75.49240 0 0 0
11/27/2008 9:19 N 39.69348 W 75.53561 0 0 0
11/27/2008 9:20 N 39.69746 W 75.56250 0 0 0
11/27/2008 9:23 N 39.70021 W 75.58675 0 0 0
11/27/2008 9:25 N 39.70863 W 75.60143 0 0 0
11/27/2008 9:27 N 39.69345 W 75.62846 0 0 0
11/27/2008 9:29 N 39.68724 W 75.64687 0 0 0
11/27/2008 9:30 N 39.67413 W 75.67355 0 0 0
11/27/2008 9:32 N 39.66533 W 75.68637 0 0 0
11/27/2008 9:33 N 39.65483 W 75.70737 0 0 0
11/27/2008 9:34 N 39.64867 W 75.73672 0 0 0
11/27/2008 9:37 N 39.64598 W 75.76089 0 0 0
11/27/2008 9:38 N 39.64174 W 75.77634 0 0 0
11/27/2008 9:40 N 39.64476 W 75.79844 0 0 0
11/27/2008 9:43 N 39.64499 W 75.84764 0 0 0
11/27/2008 9:45 N 39.64288 W 75.87253 0 0 0
11/27/2008 9:46 N 39.64301 W 75.89391 0 0 0
11/27/2008 9:48 N 39.64304 W 75.91531 0 0 0
11/27/2008 9:50 N 39.63220 W 75.95076 0 0 0
11/27/2008 9:52 N 39.62141 W 75.98709 0 0 0
11/27/2008 9:56 N 39.60410 W 76.03215 0 0 0
11/27/2008 9:59 N 39.59592 W 76.06163 0 0 0
11/27/2008 10:01 N 39.58076 W 76.10570 0 0 0
11/27/2008 10:06 N 39.56296 W 76.14644 0 0 0
11/27/2008 10:09 N 39.53554 W 76.17586 0 0 0
11/27/2008 10:15 N 39.49013 W 76.23647 0 0 0
11/27/2008 10:16 N 39.47791 W 76.26433 0 0 0
11/27/2008 10:19 N 39.46741 W 76.28772 0 0 0
11/27/2008 10:21 N 39.45038 W 76.32449 0 0 0
11/27/2008 10:23 N 39.44398 W 76.34152 0 0 0
11/27/2008 10:24 N 39.44035 W 76.36392 0 0 0
11/27/2008 10:26 N 39.42484 W 76.39522 0 0 0
11/27/2008 10:28 N 39.40709 W 76.41882 0 0 0
11/27/2008 10:30 N 39.40110 W 76.42650 0 0 0
11/27/2008 10:32 N 39.37224 W 76.45895 0 0 0
11/27/2008 10:36 N 39.35233 W 76.49265 0 0 0
11/27/2008 10:37 N 39.34432 W 76.50906 0 0 0
11/27/2008 10:39 N 39.33091 W 76.52229 0 0 0
11/27/2008 10:41 N 39.30135 W 76.53143 0 0 0
11/27/2008 10:43 N 39.28575 W 76.53972 0 0 0
11/27/2008 10:44 N 39.27762 W 76.55284 0 0 0
11/27/2008 10:46 N 39.26801 W 76.56033 0 0 0
11/27/2008 10:48 N 39.26508 W 76.59201 0 0 0
11/27/2008 10:57 N 39.24789 W 76.68727<